Orbital elements of COSMOS 1275 DEB
| Launched | 3 June 1981 |
| Flight ended | – |
| Launch site | Plesetsk Missile and Space Complex, Russia |
| Owner | Commonwealth of Independent States (former USSR) |
| NORAD ID | 14358 |
| Date fetched |
Epoch osculation |
Inc. [°] |
Ecc. | RA asc node [hr] |
Arg Peri. [°] |
Mean anom [°] |
Mean motion [rev/day] |
Abs. mag |
| Date fetched |
Epoch osculation |
Inc. [°] |
Ecc. | RA asc node [hr] |
Arg Peri. [°] |
Mean anom [°] |
Mean motion [rev/day] |
Abs. mag |
| 2026 May 05 17:57 | 2026 May 05 02:03:50 | 82.8044 | 0.01631 | 23.3145 | 173.8939 | 348.4651 | 14.11876 | – |
| 2026 May 04 17:57 | 2026 Apr 30 14:16:24 | 82.8058 | 0.01626 | 23.5551 | 187.2335 | 348.4651 | 14.11876 | – |
| 2026 May 03 17:57 | 2026 Apr 30 14:16:24 | 82.8058 | 0.01626 | 23.5551 | 187.2335 | 348.4651 | 14.11876 | – |
| 2026 May 02 17:57 | 2026 Apr 30 14:16:24 | 82.8058 | 0.01626 | 23.5551 | 187.2335 | 348.4651 | 14.11876 | – |
| 2026 May 01 17:56 | 2026 Apr 30 14:16:24 | 82.8058 | 0.01626 | 23.5551 | 187.2335 | 348.4651 | 14.11876 | – |
| 2026 Apr 30 17:56 | 2026 Apr 30 14:16:24 | 82.8058 | 0.01626 | 23.5551 | 187.2335 | 348.4651 | 14.11876 | – |
| 2026 Apr 29 17:57 | 2026 Apr 24 04:07:00 | 82.8061 | 0.01622 | 23.8992 | 206.5328 | 348.4651 | 14.11876 | – |
| 2026 Apr 28 17:56 | 2026 Apr 24 04:07:00 | 82.8061 | 0.01622 | 23.8992 | 206.5328 | 348.4651 | 14.11876 | – |
| 2026 Apr 27 17:58 | 2026 Apr 24 04:07:00 | 82.8061 | 0.01622 | 23.8992 | 206.5328 | 348.4651 | 14.11876 | – |
| 2026 Apr 26 17:58 | 2026 Apr 24 04:07:00 | 82.8061 | 0.01622 | 23.8992 | 206.5328 | 348.4651 | 14.11876 | – |
| 2026 Apr 25 17:58 | 2026 Apr 24 04:07:00 | 82.8061 | 0.01622 | 23.8992 | 206.5328 | 348.4651 | 14.11876 | – |
| 2026 Apr 24 17:59 | 2026 Apr 24 04:07:00 | 82.8061 | 0.01622 | 23.8992 | 206.5328 | 348.4651 | 14.11876 | – |
| 2026 Apr 23 17:57 | 2026 Apr 19 03:19:20 | 82.8062 | 0.01623 | 0.1689 | 221.8178 | 348.4651 | 14.11876 | – |
| 2026 Apr 22 17:57 | 2026 Apr 19 03:19:20 | 82.8062 | 0.01623 | 0.1689 | 221.8178 | 348.4651 | 14.11876 | – |
| 2026 Apr 21 17:57 | 2026 Apr 19 03:19:20 | 82.8062 | 0.01623 | 0.1689 | 221.8178 | 348.4651 | 14.11876 | – |
| 2026 Apr 20 17:57 | 2026 Apr 19 03:19:20 | 82.8062 | 0.01623 | 0.1689 | 221.8178 | 348.4651 | 14.11876 | – |
| 2026 Apr 19 17:58 | 2026 Apr 19 03:19:20 | 82.8062 | 0.01623 | 0.1689 | 221.8178 | 348.4651 | 14.11876 | – |
| 2026 Apr 18 17:56 | 2026 Apr 13 04:26:08 | 82.8068 | 0.01628 | 0.4878 | 239.8746 | 348.4651 | 14.11876 | – |
| 2026 Apr 16 17:57 | 2026 Apr 13 04:26:08 | 82.8068 | 0.01628 | 0.4878 | 239.8746 | 348.4651 | 14.11876 | – |
| 2026 Apr 14 17:57 | 2026 Apr 13 04:26:08 | 82.8068 | 0.01628 | 0.4878 | 239.8746 | 348.4651 | 14.11876 | – |
| 2026 Apr 13 17:57 | 2026 Apr 13 04:26:08 | 82.8068 | 0.01628 | 0.4878 | 239.8746 | 348.4651 | 14.11876 | – |
| 2026 Apr 12 17:57 | 2026 Apr 08 12:16:35 | 82.8059 | 0.01631 | 0.7382 | 253.9313 | 348.4651 | 14.11876 | – |
| 2026 Apr 11 17:57 | 2026 Apr 08 12:16:35 | 82.8059 | 0.01631 | 0.7382 | 253.9313 | 348.4651 | 14.11876 | – |
| 2026 Apr 10 17:58 | 2026 Apr 08 12:16:35 | 82.8059 | 0.01631 | 0.7382 | 253.9313 | 348.4651 | 14.11876 | – |
| 2026 Apr 09 18:01 | 2026 Apr 08 12:16:35 | 82.8059 | 0.01631 | 0.7382 | 253.9313 | 348.4651 | 14.11876 | – |
| 2026 Apr 08 17:57 | 2026 Apr 08 12:16:35 | 82.8059 | 0.01631 | 0.7382 | 253.9313 | 348.4651 | 14.11876 | – |